Forside
METAR-TAF:

METAR-TAF

Lufthavne :

Tjita, Rusland

Breddekreds: 52-05N, længdekreds: 113-29E, højde: 685 m

Aktuelle vejr

Denne rapport blev lavet for 48 minutter siden, kl. 16:30 UTC
Vind 4 kt fra nordøst
Temperatur 15°C
Fugtighed 88%
Tryk 1002 hPa
Sigt 10 km eller mere

METAR: UIAA 251630Z AUTO 04002MPS 9999 NCD 15/13 Q1002 RMK QFE693/0924

Tid: 02:18 (17:18 UTC)

Vejrudsigter

Denne rapport blev lavet for 3 timer og 18 minutter siden, kl. 14:00 UTC
Foreløbig gælder fra 25 på 15 UTC til 26 på 15 UTC
Vind 6 kt fra nord med vindstød på up til 16 kt
Sigt 10 km eller mere
Spredte skyer i en højde af 2300 ft, Cumulonimbus.
Midlertidig
fra 25 på 18 UTC til 26 på 01 UTC
Sigt: 0500 m
i en højde af 100 ft
tåge
Midlertidig
fra 26 på 03 UTC til 26 på 12 UTC
Vind 19 kt fra varierende retninger
tordenbyger, let regn

TAF: UIAA 251400Z 2515/2615 36003G08MPS 9999 SCT023CB TEMPO 2518/2601 0500 FG VV001 TEMPO 2603/2612 VRB10MPS -TSRA

Vejrobservationer og prognoser fra mere end 4000 lufthavne (METAR og TAF).

De gule og røde prikker repræsenterer de meteorologiske stationer.

Flyt musen over at se navnet på stationen.

Så klik over at se vejr observationer og prognoser.

At skifte det kort: Klik på de grønne knapper med et sort kors for at zoome ind; på den grønne knap med en bindestreg for at zoome ud; eller på de grønne pile for tilstødende kort.


METAR-TAF: